sensor_id;sensor_type;location;lat;lon;timestamp;P1;durP1;ratioP1;P2;durP2;ratioP2
71091;SDS011;58751;50.708;7.134;2023-04-06T00:02:02;11.43;;;7.40;;
71091;SDS011;58751;50.708;7.134;2023-04-06T00:04:27;11.80;;;7.23;;
71091;SDS011;58751;50.708;7.134;2023-04-06T00:06:52;9.90;;;7.67;;
71091;SDS011;58751;50.708;7.134;2023-04-06T00:09:18;9.30;;;7.10;;
71091;SDS011;58751;50.708;7.134;2023-04-06T00:11:44;13.87;;;7.97;;
71091;SDS011;58751;50.708;7.134;2023-04-06T00:14:09;9.75;;;7.13;;
71091;SDS011;58751;50.708;7.134;2023-04-06T00:16:35;10.70;;;7.10;;
71091;SDS011;58751;50.708;7.134;2023-04-06T00:19:00;13.63;;;7.70;;
71091;SDS011;58751;50.708;7.134;2023-04-06T00:21:25;10.00;;;7.40;;
71091;SDS011;58751;50.708;7.134;2023-04-06T00:23:50;10.30;;;7.73;;
71091;SDS011;58751;50.708;7.134;2023-04-06T00:26:16;10.20;;;7.70;;
71091;SDS011;58751;50.708;7.134;2023-04-06T00:28:42;11.53;;;7.17;;
71091;SDS011;58751;50.708;7.134;2023-04-06T00:31:07;10.18;;;7.00;;
71091;SDS011;58751;50.708;7.134;2023-04-06T00:33:33;10.87;;;7.07;;
71091;SDS011;58751;50.708;7.134;2023-04-06T00:35:58;10.73;;;8.17;;
71091;SDS011;58751;50.708;7.134;2023-04-06T00:38:23;14.67;;;7.97;;
71091;SDS011;58751;50.708;7.134;2023-04-06T00:40:48;12.30;;;7.53;;
71091;SDS011;58751;50.708;7.134;2023-04-06T00:43:13;13.83;;;8.10;;
71091;SDS011;58751;50.708;7.134;2023-04-06T00:45:40;7.97;;;6.90;;
71091;SDS011;58751;50.708;7.134;2023-04-06T00:48:06;9.27;;;7.47;;
71091;SDS011;58751;50.708;7.134;2023-04-06T00:50:31;11.67;;;8.50;;
71091;SDS011;58751;50.708;7.134;2023-04-06T00:52:57;9.90;;;7.10;;
71091;SDS011;58751;50.708;7.134;2023-04-06T00:55:23;8.65;;;7.63;;
71091;SDS011;58751;50.708;7.134;2023-04-06T00:57:48;10.30;;;7.70;;
71091;SDS011;58751;50.708;7.134;2023-04-06T01:00:13;9.40;;;7.90;;
71091;SDS011;58751;50.708;7.134;2023-04-06T01:02:40;9.60;;;7.67;;
71091;SDS011;58751;50.708;7.134;2023-04-06T01:05:06;10.18;;;7.53;;
71091;SDS011;58751;50.708;7.134;2023-04-06T01:07:31;9.13;;;7.80;;
71091;SDS011;58751;50.708;7.134;2023-04-06T01:09:57;11.93;;;7.90;;
71091;SDS011;58751;50.708;7.134;2023-04-06T01:12:22;10.43;;;8.10;;
71091;SDS011;58751;50.708;7.134;2023-04-06T01:14:47;9.57;;;7.50;;
71091;SDS011;58751;50.708;7.134;2023-04-06T01:17:13;10.83;;;7.47;;
71091;SDS011;58751;50.708;7.134;2023-04-06T01:19:39;9.30;;;7.60;;
71091;SDS011;58751;50.708;7.134;2023-04-06T01:22:05;9.57;;;7.50;;
71091;SDS011;58751;50.708;7.134;2023-04-06T01:24:31;9.87;;;8.30;;
71091;SDS011;58751;50.708;7.134;2023-04-06T01:26:57;12.25;;;8.10;;
71091;SDS011;58751;50.708;7.134;2023-04-06T01:29:22;11.50;;;6.00;;
71091;SDS011;58751;50.708;7.134;2023-04-06T01:31:47;10.47;;;7.00;;
71091;SDS011;58751;50.708;7.134;2023-04-06T01:34:12;16.97;;;7.40;;
71091;SDS011;58751;50.708;7.134;2023-04-06T01:36:38;7.33;;;6.33;;
71091;SDS011;58751;50.708;7.134;2023-04-06T01:39:03;10.40;;;7.40;;
71091;SDS011;58751;50.708;7.134;2023-04-06T01:41:29;12.87;;;7.60;;
71091;SDS011;58751;50.708;7.134;2023-04-06T01:43:55;11.05;;;8.13;;
71091;SDS011;58751;50.708;7.134;2023-04-06T01:46:20;9.00;;;7.47;;
71091;SDS011;58751;50.708;7.134;2023-04-06T01:48:45;11.57;;;8.00;;
71091;SDS011;58751;50.708;7.134;2023-04-06T01:51:10;8.23;;;7.30;;
71091;SDS011;58751;50.708;7.134;2023-04-06T01:53:36;9.53;;;7.37;;
71091;SDS011;58751;50.708;7.134;2023-04-06T01:56:01;11.77;;;7.30;;
71091;SDS011;58751;50.708;7.134;2023-04-06T01:58:27;8.93;;;7.03;;
71091;SDS011;58751;50.708;7.134;2023-04-06T02:00:53;9.00;;;8.10;;
71091;SDS011;58751;50.708;7.134;2023-04-06T02:03:18;11.47;;;8.17;;
71091;SDS011;58751;50.708;7.134;2023-04-06T02:05:43;10.37;;;8.10;;
71091;SDS011;58751;50.708;7.134;2023-04-06T02:08:08;9.93;;;7.50;;
71091;SDS011;58751;50.708;7.134;2023-04-06T02:10:34;8.80;;;7.40;;
71091;SDS011;58751;50.708;7.134;2023-04-06T02:12:59;8.63;;;5.87;;
71091;SDS011;58751;50.708;7.134;2023-04-06T02:15:26;12.20;;;7.13;;
71091;SDS011;58751;50.708;7.134;2023-04-06T02:17:51;7.80;;;7.10;;
71091;SDS011;58751;50.708;7.134;2023-04-06T02:20:16;8.43;;;7.00;;
71091;SDS011;58751;50.708;7.134;2023-04-06T02:22:42;15.37;;;8.07;;
71091;SDS011;58751;50.708;7.134;2023-04-06T02:25:07;8.80;;;7.23;;
71091;SDS011;58751;50.708;7.134;2023-04-06T02:27:32;12.23;;;7.77;;
71091;SDS011;58751;50.708;7.134;2023-04-06T02:29:57;12.03;;;7.10;;
71091;SDS011;58751;50.708;7.134;2023-04-06T02:32:24;9.67;;;7.87;;
71091;SDS011;58751;50.708;7.134;2023-04-06T02:34:49;12.05;;;7.75;;
71091;SDS011;58751;50.708;7.134;2023-04-06T02:37:14;9.40;;;6.77;;
71091;SDS011;58751;50.708;7.134;2023-04-06T02:39:40;7.57;;;6.87;;
71091;SDS011;58751;50.708;7.134;2023-04-06T02:42:06;12.23;;;8.43;;
71091;SDS011;58751;50.708;7.134;2023-04-06T02:44:31;9.80;;;8.07;;
71091;SDS011;58751;50.708;7.134;2023-04-06T02:46:56;9.83;;;7.70;;
71091;SDS011;58751;50.708;7.134;2023-04-06T02:49:23;12.87;;;8.07;;
71091;SDS011;58751;50.708;7.134;2023-04-06T02:51:48;10.70;;;7.80;;
71091;SDS011;58751;50.708;7.134;2023-04-06T02:54:13;9.63;;;7.80;;
71091;SDS011;58751;50.708;7.134;2023-04-06T02:56:38;10.90;;;8.57;;
71091;SDS011;58751;50.708;7.134;2023-04-06T02:59:04;9.20;;;8.20;;
71091;SDS011;58751;50.708;7.134;2023-04-06T03:01:29;9.60;;;8.33;;
71091;SDS011;58751;50.708;7.134;2023-04-06T03:03:54;10.97;;;7.37;;
71091;SDS011;58751;50.708;7.134;2023-04-06T03:06:21;8.67;;;7.60;;
71091;SDS011;58751;50.708;7.134;2023-04-06T03:08:46;8.40;;;7.50;;
71091;SDS011;58751;50.708;7.134;2023-04-06T03:11:11;8.50;;;7.63;;
71091;SDS011;58751;50.708;7.134;2023-04-06T03:13:36;9.50;;;7.20;;
71091;SDS011;58751;50.708;7.134;2023-04-06T03:16:02;11.50;;;8.07;;
71091;SDS011;58751;50.708;7.134;2023-04-06T03:18:27;8.27;;;6.93;;
71091;SDS011;58751;50.708;7.134;2023-04-06T03:20:52;13.03;;;7.63;;
71091;SDS011;58751;50.708;7.134;2023-04-06T03:23:19;8.13;;;7.23;;
71091;SDS011;58751;50.708;7.134;2023-04-06T03:25:44;8.93;;;7.30;;
71091;SDS011;58751;50.708;7.134;2023-04-06T03:28:09;10.30;;;7.03;;
71091;SDS011;58751;50.708;7.134;2023-04-06T03:30:35;13.53;;;9.57;;
71091;SDS011;58751;50.708;7.134;2023-04-06T03:33:00;11.40;;;7.53;;
71091;SDS011;58751;50.708;7.134;2023-04-06T03:35:25;9.43;;;7.70;;
71091;SDS011;58751;50.708;7.134;2023-04-06T03:37:50;8.37;;;7.50;;
71091;SDS011;58751;50.708;7.134;2023-04-06T03:40:17;10.00;;;8.43;;
71091;SDS011;58751;50.708;7.134;2023-04-06T03:42:42;10.05;;;7.30;;
71091;SDS011;58751;50.708;7.134;2023-04-06T03:45:08;10.53;;;7.80;;
71091;SDS011;58751;50.708;7.134;2023-04-06T03:47:33;10.33;;;7.90;;
71091;SDS011;58751;50.708;7.134;2023-04-06T03:49:58;11.63;;;8.97;;
71091;SDS011;58751;50.708;7.134;2023-04-06T03:52:23;9.60;;;7.97;;
71091;SDS011;58751;50.708;7.134;2023-04-06T03:54:49;9.43;;;8.37;;
71091;SDS011;58751;50.708;7.134;2023-04-06T03:57:15;13.37;;;8.20;;
71091;SDS011;58751;50.708;7.134;2023-04-06T03:59:41;10.45;;;6.80;;
71091;SDS011;58751;50.708;7.134;2023-04-06T04:02:06;14.83;;;8.47;;
71091;SDS011;58751;50.708;7.134;2023-04-06T04:04:31;9.90;;;7.47;;
71091;SDS011;58751;50.708;7.134;2023-04-06T04:06:56;8.07;;;7.00;;
71091;SDS011;58751;50.708;7.134;2023-04-06T04:09:22;10.07;;;7.83;;
71091;SDS011;58751;50.708;7.134;2023-04-06T04:11:49;11.20;;;8.00;;
71091;SDS011;58751;50.708;7.134;2023-04-06T04:14:15;11.98;;;6.85;;
71091;SDS011;58751;50.708;7.134;2023-04-06T04:16:40;9.35;;;7.80;;
71091;SDS011;58751;50.708;7.134;2023-04-06T04:19:06;11.20;;;8.63;;
71091;SDS011;58751;50.708;7.134;2023-04-06T04:21:31;11.23;;;8.07;;
71091;SDS011;58751;50.708;7.134;2023-04-06T04:23:56;12.90;;;8.17;;
71091;SDS011;58751;50.708;7.134;2023-04-06T04:26:22;10.87;;;8.03;;
71091;SDS011;58751;50.708;7.134;2023-04-06T04:28:47;9.23;;;7.33;;
71091;SDS011;58751;50.708;7.134;2023-04-06T04:31:13;9.43;;;7.37;;
71091;SDS011;58751;50.708;7.134;2023-04-06T04:33:39;9.60;;;7.68;;
71091;SDS011;58751;50.708;7.134;2023-04-06T04:36:04;9.53;;;7.33;;
71091;SDS011;58751;50.708;7.134;2023-04-06T04:38:29;10.10;;;8.10;;
71091;SDS011;58751;50.708;7.134;2023-04-06T04:40:55;12.17;;;8.10;;
71091;SDS011;58751;50.708;7.134;2023-04-06T04:43:20;12.43;;;8.47;;
71091;SDS011;58751;50.708;7.134;2023-04-06T04:45:45;11.33;;;7.83;;
71091;SDS011;58751;50.708;7.134;2023-04-06T04:48:12;9.63;;;7.97;;
71091;SDS011;58751;50.708;7.134;2023-04-06T04:50:37;11.27;;;8.55;;
71091;SDS011;58751;50.708;7.134;2023-04-06T04:53:02;8.97;;;7.33;;
71091;SDS011;58751;50.708;7.134;2023-04-06T04:55:27;11.30;;;7.47;;
71091;SDS011;58751;50.708;7.134;2023-04-06T04:57:53;8.60;;;7.63;;
71091;SDS011;58751;50.708;7.134;2023-04-06T05:00:18;17.57;;;8.70;;
71091;SDS011;58751;50.708;7.134;2023-04-06T05:02:43;9.83;;;7.83;;
71091;SDS011;58751;50.708;7.134;2023-04-06T05:05:13;11.20;;;9.27;;
71091;SDS011;58751;50.708;7.134;2023-04-06T05:07:38;12.05;;;8.48;;
71091;SDS011;58751;50.708;7.134;2023-04-06T05:10:04;12.27;;;8.97;;
71091;SDS011;58751;50.708;7.134;2023-04-06T05:12:29;10.10;;;8.40;;
71091;SDS011;58751;50.708;7.134;2023-04-06T05:14:54;12.97;;;8.37;;
71091;SDS011;58751;50.708;7.134;2023-04-06T05:17:20;9.73;;;7.30;;
71091;SDS011;58751;50.708;7.134;2023-04-06T05:19:45;9.90;;;7.27;;
71091;SDS011;58751;50.708;7.134;2023-04-06T05:22:12;8.93;;;7.60;;
71091;SDS011;58751;50.708;7.134;2023-04-06T05:24:37;8.90;;;7.63;;
71091;SDS011;58751;50.708;7.134;2023-04-06T05:27:02;10.90;;;6.63;;
71091;SDS011;58751;50.708;7.134;2023-04-06T05:29:28;9.70;;;6.90;;
71091;SDS011;58751;50.708;7.134;2023-04-06T05:31:53;9.33;;;8.30;;
71091;SDS011;58751;50.708;7.134;2023-04-06T05:34:19;12.63;;;8.67;;
71091;SDS011;58751;50.708;7.134;2023-04-06T05:36:44;9.53;;;7.70;;
71091;SDS011;58751;50.708;7.134;2023-04-06T05:39:11;12.60;;;9.17;;
71091;SDS011;58751;50.708;7.134;2023-04-06T05:41:36;10.27;;;7.95;;
71091;SDS011;58751;50.708;7.134;2023-04-06T05:44:01;10.93;;;8.47;;
71091;SDS011;58751;50.708;7.134;2023-04-06T05:46:26;9.03;;;8.10;;
71091;SDS011;58751;50.708;7.134;2023-04-06T05:48:51;10.30;;;8.57;;
71091;SDS011;58751;50.708;7.134;2023-04-06T05:51:17;10.07;;;7.67;;
71091;SDS011;58751;50.708;7.134;2023-04-06T05:53:42;9.30;;;7.87;;
71091;SDS011;58751;50.708;7.134;2023-04-06T05:56:08;8.97;;;7.60;;
71091;SDS011;58751;50.708;7.134;2023-04-06T05:58:34;8.60;;;7.80;;
71091;SDS011;58751;50.708;7.134;2023-04-06T06:00:59;10.50;;;7.53;;
71091;SDS011;58751;50.708;7.134;2023-04-06T06:03:24;10.47;;;7.60;;
71091;SDS011;58751;50.708;7.134;2023-04-06T06:05:50;8.23;;;7.40;;
71091;SDS011;58751;50.708;7.134;2023-04-06T06:08:15;14.00;;;7.90;;
71091;SDS011;58751;50.708;7.134;2023-04-06T06:10:40;8.80;;;7.43;;
71091;SDS011;58751;50.708;7.134;2023-04-06T06:13:07;12.43;;;7.00;;
71091;SDS011;58751;50.708;7.134;2023-04-06T06:15:32;8.82;;;6.82;;
71091;SDS011;58751;50.708;7.134;2023-04-06T06:17:57;7.70;;;6.87;;
71091;SDS011;58751;50.708;7.134;2023-04-06T06:20:22;9.27;;;6.70;;
71091;SDS011;58751;50.708;7.134;2023-04-06T06:22:48;8.80;;;7.90;;
71091;SDS011;58751;50.708;7.134;2023-04-06T06:25:13;7.80;;;7.00;;
71091;SDS011;58751;50.708;7.134;2023-04-06T06:27:38;10.10;;;7.10;;
71091;SDS011;58751;50.708;7.134;2023-04-06T06:30:05;8.27;;;7.40;;
71091;SDS011;58751;50.708;7.134;2023-04-06T06:32:31;9.82;;;8.20;;
71091;SDS011;58751;50.708;7.134;2023-04-06T06:34:56;8.57;;;7.77;;
71091;SDS011;58751;50.708;7.134;2023-04-06T06:37:22;8.90;;;8.10;;
71091;SDS011;58751;50.708;7.134;2023-04-06T06:39:47;10.33;;;9.03;;
71091;SDS011;58751;50.708;7.134;2023-04-06T06:42:12;9.53;;;7.47;;
71091;SDS011;58751;50.708;7.134;2023-04-06T06:44:37;8.47;;;7.53;;
71091;SDS011;58751;50.708;7.134;2023-04-06T06:47:04;8.43;;;7.50;;
71091;SDS011;58751;50.708;7.134;2023-04-06T06:49:29;8.73;;;7.15;;
71091;SDS011;58751;50.708;7.134;2023-04-06T06:51:54;9.67;;;8.40;;
71091;SDS011;58751;50.708;7.134;2023-04-06T06:54:20;9.40;;;8.13;;
71091;SDS011;58751;50.708;7.134;2023-04-06T06:56:45;10.67;;;8.70;;
71091;SDS011;58751;50.708;7.134;2023-04-06T06:59:10;8.80;;;7.70;;
71091;SDS011;58751;50.708;7.134;2023-04-06T07:01:36;11.10;;;8.23;;
71091;SDS011;58751;50.708;7.134;2023-04-06T07:04:03;9.43;;;8.37;;
71091;SDS011;58751;50.708;7.134;2023-04-06T07:06:28;9.00;;;8.10;;
71091;SDS011;58751;50.708;7.134;2023-04-06T07:08:53;9.80;;;8.87;;
71091;SDS011;58751;50.708;7.134;2023-04-06T07:11:19;9.80;;;8.63;;
71091;SDS011;58751;50.708;7.134;2023-04-06T07:13:44;9.37;;;7.37;;
71091;SDS011;58751;50.708;7.134;2023-04-06T07:16:09;7.77;;;6.70;;
71091;SDS011;58751;50.708;7.134;2023-04-06T07:18:34;8.67;;;7.00;;
71091;SDS011;58751;50.708;7.134;2023-04-06T07:21:01;9.57;;;8.57;;
71091;SDS011;58751;50.708;7.134;2023-04-06T07:23:26;8.60;;;7.80;;
71091;SDS011;58751;50.708;7.134;2023-04-06T07:25:52;8.10;;;7.40;;
71091;SDS011;58751;50.708;7.134;2023-04-06T07:28:17;9.80;;;8.20;;
71091;SDS011;58751;50.708;7.134;2023-04-06T07:30:42;7.80;;;6.80;;
71091;SDS011;58751;50.708;7.134;2023-04-06T07:33:07;8.47;;;7.57;;
71091;SDS011;58751;50.708;7.134;2023-04-06T07:35:33;8.33;;;7.53;;
71091;SDS011;58751;50.708;7.134;2023-04-06T07:37:59;8.30;;;7.50;;
71091;SDS011;58751;50.708;7.134;2023-04-06T07:40:25;8.37;;;7.57;;
71091;SDS011;58751;50.708;7.134;2023-04-06T07:42:50;7.83;;;7.03;;
71091;SDS011;58751;50.708;7.134;2023-04-06T07:45:15;7.70;;;7.10;;
71091;SDS011;58751;50.708;7.134;2023-04-06T07:47:40;8.40;;;7.60;;
71091;SDS011;58751;50.708;7.134;2023-04-06T07:50:06;8.70;;;7.90;;
71091;SDS011;58751;50.708;7.134;2023-04-06T07:52:31;11.63;;;7.87;;
71091;SDS011;58751;50.708;7.134;2023-04-06T07:54:58;7.97;;;7.27;;
71091;SDS011;58751;50.708;7.134;2023-04-06T07:57:23;8.97;;;8.10;;
71091;SDS011;58751;50.708;7.134;2023-04-06T07:59:48;8.93;;;8.13;;
71091;SDS011;58751;50.708;7.134;2023-04-06T08:02:14;10.17;;;8.50;;
71091;SDS011;58751;50.708;7.134;2023-04-06T08:04:39;8.37;;;7.63;;
71091;SDS011;58751;50.708;7.134;2023-04-06T08:07:04;11.07;;;8.97;;
71091;SDS011;58751;50.708;7.134;2023-04-06T08:09:29;9.93;;;8.00;;
71091;SDS011;58751;50.708;7.134;2023-04-06T08:11:56;9.10;;;8.23;;
71091;SDS011;58751;50.708;7.134;2023-04-06T08:14:21;11.30;;;8.80;;
71091;SDS011;58751;50.708;7.134;2023-04-06T08:16:46;8.30;;;7.33;;
71091;SDS011;58751;50.708;7.134;2023-04-06T08:19:12;13.93;;;9.90;;
71091;SDS011;58751;50.708;7.134;2023-04-06T08:21:37;8.07;;;7.27;;
71091;SDS011;58751;50.708;7.134;2023-04-06T08:24:02;9.83;;;8.10;;
71091;SDS011;58751;50.708;7.134;2023-04-06T08:26:28;9.67;;;8.73;;
71091;SDS011;58751;50.708;7.134;2023-04-06T08:28:54;9.47;;;8.43;;
71091;SDS011;58751;50.708;7.134;2023-04-06T08:31:20;10.00;;;9.07;;
71091;SDS011;58751;50.708;7.134;2023-04-06T08:33:45;10.13;;;9.10;;
71091;SDS011;58751;50.708;7.134;2023-04-06T08:36:11;10.37;;;8.30;;
71091;SDS011;58751;50.708;7.134;2023-04-06T08:38:36;10.67;;;8.10;;
71091;SDS011;58751;50.708;7.134;2023-04-06T08:41:06;13.07;;;8.50;;
71091;SDS011;58751;50.708;7.134;2023-04-06T08:43:31;10.23;;;8.60;;
71091;SDS011;58751;50.708;7.134;2023-04-06T08:45:58;8.90;;;8.00;;
71091;SDS011;58751;50.708;7.134;2023-04-06T08:48:23;10.43;;;8.30;;
71091;SDS011;58751;50.708;7.134;2023-04-06T08:50:48;8.43;;;7.27;;
71091;SDS011;58751;50.708;7.134;2023-04-06T08:53:14;9.63;;;8.40;;
71091;SDS011;58751;50.708;7.134;2023-04-06T08:55:41;9.43;;;7.83;;
71091;SDS011;58751;50.708;7.134;2023-04-06T08:58:07;11.83;;;8.73;;
71091;SDS011;58751;50.708;7.134;2023-04-06T09:00:33;11.43;;;9.50;;
71091;SDS011;58751;50.708;7.134;2023-04-06T09:03:02;9.70;;;8.43;;
71091;SDS011;58751;50.708;7.134;2023-04-06T09:05:28;10.37;;;8.50;;
71091;SDS011;58751;50.708;7.134;2023-04-06T09:07:53;12.50;;;9.30;;
71091;SDS011;58751;50.708;7.134;2023-04-06T09:10:19;10.70;;;9.20;;
71091;SDS011;58751;50.708;7.134;2023-04-06T09:12:44;14.03;;;8.90;;
71091;SDS011;58751;50.708;7.134;2023-04-06T09:15:17;9.07;;;8.07;;
71091;SDS011;58751;50.708;7.134;2023-04-06T09:17:43;11.90;;;8.57;;
71091;SDS011;58751;50.708;7.134;2023-04-06T09:20:11;9.93;;;8.80;;
71091;SDS011;58751;50.708;7.134;2023-04-06T09:22:36;10.97;;;8.90;;
71091;SDS011;58751;50.708;7.134;2023-04-06T09:25:02;10.00;;;8.60;;
71091;SDS011;58751;50.708;7.134;2023-04-06T09:27:30;10.87;;;8.80;;
71091;SDS011;58751;50.708;7.134;2023-04-06T09:30:02;10.73;;;8.87;;
71091;SDS011;58751;50.708;7.134;2023-04-06T09:32:27;13.40;;;8.87;;
71091;SDS011;58751;50.708;7.134;2023-04-06T09:34:52;9.43;;;8.53;;
71091;SDS011;58751;50.708;7.134;2023-04-06T09:37:19;12.83;;;8.90;;
71091;SDS011;58751;50.708;7.134;2023-04-06T09:39:44;14.73;;;8.93;;
71091;SDS011;58751;50.708;7.134;2023-04-06T09:42:11;9.30;;;7.90;;
71091;SDS011;58751;50.708;7.134;2023-04-06T09:44:36;9.50;;;7.70;;
71091;SDS011;58751;50.708;7.134;2023-04-06T09:47:01;16.30;;;8.37;;
71091;SDS011;58751;50.708;7.134;2023-04-06T09:49:27;13.40;;;9.30;;
71091;SDS011;58751;50.708;7.134;2023-04-06T09:51:55;13.80;;;9.77;;
71091;SDS011;58751;50.708;7.134;2023-04-06T09:54:23;12.80;;;9.63;;
71091;SDS011;58751;50.708;7.134;2023-04-06T09:56:50;13.50;;;8.97;;
71091;SDS011;58751;50.708;7.134;2023-04-06T09:59:18;13.17;;;8.70;;
71091;SDS011;58751;50.708;7.134;2023-04-06T10:01:43;10.97;;;9.23;;
71091;SDS011;58751;50.708;7.134;2023-04-06T10:04:16;13.27;;;9.10;;
71091;SDS011;58751;50.708;7.134;2023-04-06T10:06:44;12.03;;;9.70;;
71091;SDS011;58751;50.708;7.134;2023-04-06T10:09:11;11.63;;;8.80;;
71091;SDS011;58751;50.708;7.134;2023-04-06T10:11:37;12.57;;;8.67;;
71091;SDS011;58751;50.708;7.134;2023-04-06T10:14:03;12.60;;;8.00;;
71091;SDS011;58751;50.708;7.134;2023-04-06T10:16:28;12.87;;;9.60;;
71091;SDS011;58751;50.708;7.134;2023-04-06T10:18:55;12.33;;;8.87;;
71091;SDS011;58751;50.708;7.134;2023-04-06T10:21:23;10.87;;;8.80;;
71091;SDS011;58751;50.708;7.134;2023-04-06T10:23:51;12.00;;;8.50;;
71091;SDS011;58751;50.708;7.134;2023-04-06T10:26:16;14.07;;;9.13;;
71091;SDS011;58751;50.708;7.134;2023-04-06T10:28:44;11.87;;;8.80;;
71091;SDS011;58751;50.708;7.134;2023-04-06T10:31:10;11.87;;;8.10;;
71091;SDS011;58751;50.708;7.134;2023-04-06T10:33:35;14.17;;;9.60;;
71091;SDS011;58751;50.708;7.134;2023-04-06T10:36:09;12.27;;;8.30;;
71091;SDS011;58751;50.708;7.134;2023-04-06T10:38:34;11.73;;;8.30;;
71091;SDS011;58751;50.708;7.134;2023-04-06T10:41:03;11.87;;;8.00;;
71091;SDS011;58751;50.708;7.134;2023-04-06T10:43:32;12.63;;;9.50;;
71091;SDS011;58751;50.708;7.134;2023-04-06T10:46:00;12.83;;;9.10;;
71091;SDS011;58751;50.708;7.134;2023-04-06T10:48:36;12.03;;;8.30;;
71091;SDS011;58751;50.708;7.134;2023-04-06T10:51:06;12.93;;;9.07;;
71091;SDS011;58751;50.708;7.134;2023-04-06T10:53:32;10.40;;;7.70;;
71091;SDS011;58751;50.708;7.134;2023-04-06T10:55:58;10.83;;;9.00;;
71091;SDS011;58751;50.708;7.134;2023-04-06T10:58:24;10.37;;;7.60;;
71091;SDS011;58751;50.708;7.134;2023-04-06T11:00:50;12.83;;;8.93;;
71091;SDS011;58751;50.708;7.134;2023-04-06T11:03:17;10.13;;;8.30;;
71091;SDS011;58751;50.708;7.134;2023-04-06T11:05:43;10.50;;;7.73;;
71091;SDS011;58751;50.708;7.134;2023-04-06T11:08:08;11.73;;;8.20;;
71091;SDS011;58751;50.708;7.134;2023-04-06T11:10:33;12.03;;;9.53;;
71091;SDS011;58751;50.708;7.134;2023-04-06T11:12:59;12.30;;;8.53;;
71091;SDS011;58751;50.708;7.134;2023-04-06T11:15:24;12.80;;;9.47;;
71091;SDS011;58751;50.708;7.134;2023-04-06T11:17:49;12.87;;;9.60;;
71091;SDS011;58751;50.708;7.134;2023-04-06T11:20:16;12.30;;;8.03;;
71091;SDS011;58751;50.708;7.134;2023-04-06T11:22:48;12.20;;;8.53;;
71091;SDS011;58751;50.708;7.134;2023-04-06T11:25:13;12.80;;;9.30;;
71091;SDS011;58751;50.708;7.134;2023-04-06T11:27:38;10.23;;;7.30;;
71091;SDS011;58751;50.708;7.134;2023-04-06T11:30:04;11.40;;;8.67;;
71091;SDS011;58751;50.708;7.134;2023-04-06T11:32:38;11.77;;;8.20;;
71091;SDS011;58751;50.708;7.134;2023-04-06T11:35:04;11.90;;;8.50;;
71091;SDS011;58751;50.708;7.134;2023-04-06T11:37:31;12.80;;;8.80;;
71091;SDS011;58751;50.708;7.134;2023-04-06T11:39:56;12.13;;;8.70;;
71091;SDS011;58751;50.708;7.134;2023-04-06T11:42:21;10.90;;;8.17;;
71091;SDS011;58751;50.708;7.134;2023-04-06T11:44:49;13.37;;;9.93;;
71091;SDS011;58751;50.708;7.134;2023-04-06T11:47:14;12.30;;;8.80;;
71091;SDS011;58751;50.708;7.134;2023-04-06T11:49:40;13.50;;;9.23;;
71091;SDS011;58751;50.708;7.134;2023-04-06T11:52:14;12.87;;;8.70;;
71091;SDS011;58751;50.708;7.134;2023-04-06T11:54:40;11.67;;;9.50;;
71091;SDS011;58751;50.708;7.134;2023-04-06T11:57:07;10.47;;;7.93;;
71091;SDS011;58751;50.708;7.134;2023-04-06T11:59:32;15.40;;;9.60;;
71091;SDS011;58751;50.708;7.134;2023-04-06T12:01:58;10.80;;;8.77;;
71091;SDS011;58751;50.708;7.134;2023-04-06T12:04:23;10.90;;;8.27;;
71091;SDS011;58751;50.708;7.134;2023-04-06T12:06:49;14.93;;;8.87;;
71091;SDS011;58751;50.708;7.134;2023-04-06T12:09:15;12.23;;;10.30;;
71091;SDS011;58751;50.708;7.134;2023-04-06T12:11:41;10.60;;;8.27;;
71091;SDS011;58751;50.708;7.134;2023-04-06T12:14:06;12.97;;;7.40;;
71091;SDS011;58751;50.708;7.134;2023-04-06T12:16:32;13.80;;;8.57;;
71091;SDS011;58751;50.708;7.134;2023-04-06T12:18:57;9.67;;;8.03;;
71091;SDS011;58751;50.708;7.134;2023-04-06T12:21:22;11.43;;;8.10;;
71091;SDS011;58751;50.708;7.134;2023-04-06T12:23:47;12.53;;;8.27;;
71091;SDS011;58751;50.708;7.134;2023-04-06T12:26:13;10.27;;;7.93;;
71091;SDS011;58751;50.708;7.134;2023-04-06T12:28:39;11.73;;;8.53;;
71091;SDS011;58751;50.708;7.134;2023-04-06T12:31:04;8.90;;;7.57;;
71091;SDS011;58751;50.708;7.134;2023-04-06T12:33:30;10.40;;;8.90;;
71091;SDS011;58751;50.708;7.134;2023-04-06T12:35:55;12.03;;;8.47;;
71091;SDS011;58751;50.708;7.134;2023-04-06T12:38:20;8.87;;;6.80;;
71091;SDS011;58751;50.708;7.134;2023-04-06T12:40:45;12.47;;;6.43;;
71091;SDS011;58751;50.708;7.134;2023-04-06T12:43:11;10.10;;;7.60;;
71091;SDS011;58751;50.708;7.134;2023-04-06T12:45:37;7.67;;;6.87;;
71091;SDS011;58751;50.708;7.134;2023-04-06T12:48:03;10.23;;;7.63;;
71091;SDS011;58751;50.708;7.134;2023-04-06T12:50:28;8.70;;;7.23;;
71091;SDS011;58751;50.708;7.134;2023-04-06T12:52:53;6.80;;;5.73;;
71091;SDS011;58751;50.708;7.134;2023-04-06T12:55:18;7.30;;;6.53;;
71091;SDS011;58751;50.708;7.134;2023-04-06T12:57:44;7.40;;;6.33;;
71091;SDS011;58751;50.708;7.134;2023-04-06T13:00:10;6.40;;;5.67;;
71091;SDS011;58751;50.708;7.134;2023-04-06T13:02:36;10.13;;;6.90;;
71091;SDS011;58751;50.708;7.134;2023-04-06T13:05:02;10.47;;;6.00;;
71091;SDS011;58751;50.708;7.134;2023-04-06T13:07:27;7.97;;;6.50;;
71091;SDS011;58751;50.708;7.134;2023-04-06T13:09:52;7.93;;;5.90;;
71091;SDS011;58751;50.708;7.134;2023-04-06T13:12:17;8.17;;;5.93;;
71091;SDS011;58751;50.708;7.134;2023-04-06T13:14:43;7.83;;;6.40;;
71091;SDS011;58751;50.708;7.134;2023-04-06T13:17:08;8.60;;;6.17;;
71091;SDS011;58751;50.708;7.134;2023-04-06T13:19:35;6.43;;;5.80;;
71091;SDS011;58751;50.708;7.134;2023-04-06T13:22:03;7.63;;;5.43;;
71091;SDS011;58751;50.708;7.134;2023-04-06T13:24:28;8.10;;;5.63;;
71091;SDS011;58751;50.708;7.134;2023-04-06T13:26:53;6.00;;;5.43;;
71091;SDS011;58751;50.708;7.134;2023-04-06T13:29:18;7.17;;;5.67;;
71091;SDS011;58751;50.708;7.134;2023-04-06T13:31:44;6.00;;;5.40;;
71091;SDS011;58751;50.708;7.134;2023-04-06T13:34:09;5.87;;;3.77;;
71091;SDS011;58751;50.708;7.134;2023-04-06T13:36:36;5.33;;;4.50;;
71091;SDS011;58751;50.708;7.134;2023-04-06T13:39:01;5.93;;;4.20;;
71091;SDS011;58751;50.708;7.134;2023-04-06T13:41:26;7.53;;;5.57;;
71091;SDS011;58751;50.708;7.134;2023-04-06T13:43:51;5.53;;;4.80;;
71091;SDS011;58751;50.708;7.134;2023-04-06T13:46:17;7.80;;;5.43;;
71091;SDS011;58751;50.708;7.134;2023-04-06T13:48:42;7.73;;;6.37;;
71091;SDS011;58751;50.708;7.134;2023-04-06T13:51:08;9.63;;;7.60;;
71091;SDS011;58751;50.708;7.134;2023-04-06T13:53:34;8.10;;;5.90;;
71091;SDS011;58751;50.708;7.134;2023-04-06T13:55:59;8.57;;;6.65;;
71091;SDS011;58751;50.708;7.134;2023-04-06T13:58:25;8.87;;;7.00;;
71091;SDS011;58751;50.708;7.134;2023-04-06T14:00:50;7.47;;;6.07;;
71091;SDS011;58751;50.708;7.134;2023-04-06T14:03:15;10.03;;;6.23;;
71091;SDS011;58751;50.708;7.134;2023-04-06T14:05:40;8.30;;;5.80;;
71091;SDS011;58751;50.708;7.134;2023-04-06T14:08:05;11.23;;;6.23;;
71091;SDS011;58751;50.708;7.134;2023-04-06T14:10:32;10.60;;;7.23;;
71091;SDS011;58751;50.708;7.134;2023-04-06T14:13:01;6.43;;;5.20;;
71091;SDS011;58751;50.708;7.134;2023-04-06T14:15:26;7.73;;;6.80;;
71091;SDS011;58751;50.708;7.134;2023-04-06T14:17:51;7.77;;;6.03;;
71091;SDS011;58751;50.708;7.134;2023-04-06T14:20:16;10.60;;;7.03;;
71091;SDS011;58751;50.708;7.134;2023-04-06T14:22:42;7.63;;;6.47;;
71091;SDS011;58751;50.708;7.134;2023-04-06T14:25:07;8.87;;;7.03;;
71091;SDS011;58751;50.708;7.134;2023-04-06T14:27:34;8.03;;;6.80;;
71091;SDS011;58751;50.708;7.134;2023-04-06T14:29:59;8.38;;;6.00;;
71091;SDS011;58751;50.708;7.134;2023-04-06T14:32:24;10.73;;;6.57;;